Devers, Texas
Current Conditions -  °F | °C
As of 8:15 AM on Saturday 20 Dec 2014 (Local Time) from KBMT Reporting Station
Haze Haze  
Wind Chill: 46°   Ceiling: 500
Heat Index: 49°   Visibility: 5mi
Dew Point: 49°   Wind: 8mph
Humidity: 98%   Direction: 10°N
Pressure: 30.18"   Gusts: NA
Location:  30.03°N, 94.59°W
Report Text: KBMT 201415Z AUTO 01007KT 5SM BR OVC005 10/09 A3018 RMK AO2 T00950092
Loading
Personal Weather Stations






























Interactive Weather Map New forecast layout! Learn more

10-Day Weather Forecast

Advertisements
Track Severe Weather on mobile